sensor_id;sensor_type;location;lat;lon;timestamp;pressure;altitude;pressure_sealevel;temperature;humidity
3598;BME280;1813;52.016;8.714;2022-10-16T00:01:32;-16261.94;;;-139.71;79.62
3598;BME280;1813;52.016;8.714;2022-10-16T00:04:04;-16261.94;;;-139.71;79.70
3598;BME280;1813;52.016;8.714;2022-10-16T00:06:36;-16261.94;;;-139.71;79.67
3598;BME280;1813;52.016;8.714;2022-10-16T00:09:08;-16261.94;;;-139.71;79.71
3598;BME280;1813;52.016;8.714;2022-10-16T00:11:41;-16261.94;;;-139.71;79.69
3598;BME280;1813;52.016;8.714;2022-10-16T00:14:15;-16261.94;;;-139.71;79.65
3598;BME280;1813;52.016;8.714;2022-10-16T00:16:48;-16261.94;;;-139.71;79.60
3598;BME280;1813;52.016;8.714;2022-10-16T00:19:20;-16261.94;;;-139.71;79.65
3598;BME280;1813;52.016;8.714;2022-10-16T00:21:52;-16261.94;;;-139.71;79.64
3598;BME280;1813;52.016;8.714;2022-10-16T00:24:24;-16261.94;;;-139.71;79.75
3598;BME280;1813;52.016;8.714;2022-10-16T00:26:56;-16261.94;;;-139.71;79.82
3598;BME280;1813;52.016;8.714;2022-10-16T00:29:28;-16261.94;;;-139.71;79.85
3598;BME280;1813;52.016;8.714;2022-10-16T00:32:01;-16261.94;;;-139.71;79.87
3598;BME280;1813;52.016;8.714;2022-10-16T00:34:33;-16261.94;;;-139.71;79.91
3598;BME280;1813;52.016;8.714;2022-10-16T00:37:05;-16261.94;;;-139.71;79.96
3598;BME280;1813;52.016;8.714;2022-10-16T00:39:37;-16261.94;;;-139.71;80.23
3598;BME280;1813;52.016;8.714;2022-10-16T00:42:11;-16261.94;;;-139.71;80.20
3598;BME280;1813;52.016;8.714;2022-10-16T00:44:48;-16261.94;;;-139.71;80.30
3598;BME280;1813;52.016;8.714;2022-10-16T00:47:26;-16261.94;;;-139.71;80.28
3598;BME280;1813;52.016;8.714;2022-10-16T00:50:03;-16261.94;;;-139.71;80.27
3598;BME280;1813;52.016;8.714;2022-10-16T00:52:41;-16261.94;;;-139.71;80.27
3598;BME280;1813;52.016;8.714;2022-10-16T00:55:15;-16261.94;;;-139.71;80.08
3598;BME280;1813;52.016;8.714;2022-10-16T00:57:48;-16261.94;;;-139.71;79.85
3598;BME280;1813;52.016;8.714;2022-10-16T01:00:22;-16261.94;;;-139.71;79.88
3598;BME280;1813;52.016;8.714;2022-10-16T01:02:58;-16261.94;;;-139.71;80.16
3598;BME280;1813;52.016;8.714;2022-10-16T01:05:38;-16261.94;;;-139.71;80.28
3598;BME280;1813;52.016;8.714;2022-10-16T01:08:14;-16261.94;;;-139.71;80.40
3598;BME280;1813;52.016;8.714;2022-10-16T01:10:55;-16261.94;;;-139.71;80.33
3598;BME280;1813;52.016;8.714;2022-10-16T01:13:32;-16261.94;;;-139.71;80.38
3598;BME280;1813;52.016;8.714;2022-10-16T01:16:09;-16261.94;;;-139.71;80.20
3598;BME280;1813;52.016;8.714;2022-10-16T01:18:49;-16261.94;;;-139.71;80.14
3598;BME280;1813;52.016;8.714;2022-10-16T01:21:25;-16261.94;;;-139.71;80.41
3598;BME280;1813;52.016;8.714;2022-10-16T01:24:06;-16261.94;;;-139.71;80.85
3598;BME280;1813;52.016;8.714;2022-10-16T01:29:29;-16261.94;;;-139.71;81.64
3598;BME280;1813;52.016;8.714;2022-10-16T01:32:10;-16261.94;;;-139.71;81.55
3598;BME280;1813;52.016;8.714;2022-10-16T01:34:48;-16261.94;;;-139.71;81.82
3598;BME280;1813;52.016;8.714;2022-10-16T01:37:31;-16261.94;;;-139.71;81.76
3598;BME280;1813;52.016;8.714;2022-10-16T01:40:06;-16261.94;;;-139.71;81.92
3598;BME280;1813;52.016;8.714;2022-10-16T01:42:41;-16261.94;;;-139.71;81.97
3598;BME280;1813;52.016;8.714;2022-10-16T01:45:17;-16261.94;;;-139.71;82.06
3598;BME280;1813;52.016;8.714;2022-10-16T01:47:51;-16261.94;;;-139.71;82.17
3598;BME280;1813;52.016;8.714;2022-10-16T01:50:24;-16261.94;;;-139.71;82.19
3598;BME280;1813;52.016;8.714;2022-10-16T01:52:58;-16261.94;;;-139.71;82.15
3598;BME280;1813;52.016;8.714;2022-10-16T01:55:33;-16261.94;;;-139.71;82.23
3598;BME280;1813;52.016;8.714;2022-10-16T01:58:09;-16261.94;;;-139.71;82.33
3598;BME280;1813;52.016;8.714;2022-10-16T02:00:44;-16261.94;;;-139.71;82.45
3598;BME280;1813;52.016;8.714;2022-10-16T02:03:19;-16261.94;;;-139.71;82.48
3598;BME280;1813;52.016;8.714;2022-10-16T02:05:54;-16261.94;;;-139.71;82.64
3598;BME280;1813;52.016;8.714;2022-10-16T02:08:28;-16261.94;;;-139.71;82.96
3598;BME280;1813;52.016;8.714;2022-10-16T02:11:01;-16261.94;;;-139.71;83.11
3598;BME280;1813;52.016;8.714;2022-10-16T02:13:37;-16261.94;;;-139.71;82.89
3598;BME280;1813;52.016;8.714;2022-10-16T02:16:13;-16261.94;;;-139.71;82.86
3598;BME280;1813;52.016;8.714;2022-10-16T02:18:45;-16261.94;;;-139.71;82.86
3598;BME280;1813;52.016;8.714;2022-10-16T02:21:20;-16261.94;;;-139.71;82.67
3598;BME280;1813;52.016;8.714;2022-10-16T02:24:01;-16261.94;;;-139.71;82.52
3598;BME280;1813;52.016;8.714;2022-10-16T02:26:39;-16261.94;;;-139.71;82.27
3598;BME280;1813;52.016;8.714;2022-10-16T02:29:16;-16261.94;;;-139.71;82.09
3598;BME280;1813;52.016;8.714;2022-10-16T02:31:54;-16261.94;;;-139.71;81.96
3598;BME280;1813;52.016;8.714;2022-10-16T02:34:27;-16261.94;;;-139.71;82.09
3598;BME280;1813;52.016;8.714;2022-10-16T02:37:01;-16261.94;;;-139.71;81.69
3598;BME280;1813;52.016;8.714;2022-10-16T02:39:36;-16261.94;;;-139.71;81.73
3598;BME280;1813;52.016;8.714;2022-10-16T02:42:10;-16261.94;;;-139.71;81.75
3598;BME280;1813;52.016;8.714;2022-10-16T02:44:43;-16261.94;;;-139.71;81.50
3598;BME280;1813;52.016;8.714;2022-10-16T02:47:16;-16261.94;;;-139.71;81.14
3598;BME280;1813;52.016;8.714;2022-10-16T02:49:48;-16261.94;;;-139.71;81.04
3598;BME280;1813;52.016;8.714;2022-10-16T02:52:20;-16261.94;;;-139.71;81.00
3598;BME280;1813;52.016;8.714;2022-10-16T02:54:52;-16261.94;;;-139.71;81.17
3598;BME280;1813;52.016;8.714;2022-10-16T02:57:23;-16261.94;;;-139.71;81.17
3598;BME280;1813;52.016;8.714;2022-10-16T02:59:55;-16261.94;;;-139.71;81.15
3598;BME280;1813;52.016;8.714;2022-10-16T03:02:28;-16261.94;;;-139.71;81.10
3598;BME280;1813;52.016;8.714;2022-10-16T03:05:00;-16261.94;;;-139.71;80.92
3598;BME280;1813;52.016;8.714;2022-10-16T03:07:32;-16261.94;;;-139.71;80.90
3598;BME280;1813;52.016;8.714;2022-10-16T03:10:05;-16261.94;;;-139.71;80.63
3598;BME280;1813;52.016;8.714;2022-10-16T03:12:37;-16261.94;;;-139.71;80.50
3598;BME280;1813;52.016;8.714;2022-10-16T03:15:09;-16261.94;;;-139.71;80.40
3598;BME280;1813;52.016;8.714;2022-10-16T03:17:43;-16261.94;;;-139.71;80.35
3598;BME280;1813;52.016;8.714;2022-10-16T03:20:15;-16261.94;;;-139.71;80.23
3598;BME280;1813;52.016;8.714;2022-10-16T03:22:47;-16261.94;;;-139.71;80.13
3598;BME280;1813;52.016;8.714;2022-10-16T03:25:18;-16261.94;;;-139.71;79.89
3598;BME280;1813;52.016;8.714;2022-10-16T03:27:50;-16261.94;;;-139.71;79.64
3598;BME280;1813;52.016;8.714;2022-10-16T03:30:22;-16261.94;;;-139.71;79.28
3598;BME280;1813;52.016;8.714;2022-10-16T03:32:56;-16261.94;;;-139.71;79.18
3598;BME280;1813;52.016;8.714;2022-10-16T03:35:27;-16261.94;;;-139.71;79.16
3598;BME280;1813;52.016;8.714;2022-10-16T03:38:00;-16261.94;;;-139.71;78.88
3598;BME280;1813;52.016;8.714;2022-10-16T03:40:32;-16261.94;;;-139.71;78.72
3598;BME280;1813;52.016;8.714;2022-10-16T03:43:04;-16261.94;;;-139.71;78.41
3598;BME280;1813;52.016;8.714;2022-10-16T03:45:36;-16261.94;;;-139.71;78.28
3598;BME280;1813;52.016;8.714;2022-10-16T03:48:09;-16261.94;;;-139.71;78.10
3598;BME280;1813;52.016;8.714;2022-10-16T03:50:41;-16261.94;;;-139.71;78.00
3598;BME280;1813;52.016;8.714;2022-10-16T03:53:13;-16261.94;;;-139.71;78.20
3598;BME280;1813;52.016;8.714;2022-10-16T03:55:45;-16261.94;;;-139.71;78.15
3598;BME280;1813;52.016;8.714;2022-10-16T03:58:17;-16261.94;;;-139.71;78.15
3598;BME280;1813;52.016;8.714;2022-10-16T04:00:50;-16261.94;;;-139.71;78.24
3598;BME280;1813;52.016;8.714;2022-10-16T04:03:24;-16261.94;;;-139.71;78.40
3598;BME280;1813;52.016;8.714;2022-10-16T04:05:56;-16261.94;;;-139.71;78.40
3598;BME280;1813;52.016;8.714;2022-10-16T04:08:28;-16261.94;;;-139.71;78.28
3598;BME280;1813;52.016;8.714;2022-10-16T04:11:00;-16261.94;;;-139.71;78.45
3598;BME280;1813;52.016;8.714;2022-10-16T04:13:32;-16261.94;;;-139.71;78.53
3598;BME280;1813;52.016;8.714;2022-10-16T04:16:04;-16261.94;;;-139.71;78.56
3598;BME280;1813;52.016;8.714;2022-10-16T04:18:37;-16261.94;;;-139.71;78.52
3598;BME280;1813;52.016;8.714;2022-10-16T04:21:09;-16261.94;;;-139.71;78.39
3598;BME280;1813;52.016;8.714;2022-10-16T04:23:41;-16261.94;;;-139.71;78.33
3598;BME280;1813;52.016;8.714;2022-10-16T04:26:13;-16261.94;;;-139.71;78.39
3598;BME280;1813;52.016;8.714;2022-10-16T04:28:45;-16261.94;;;-139.71;78.21
3598;BME280;1813;52.016;8.714;2022-10-16T04:31:17;-16261.94;;;-139.71;78.11
3598;BME280;1813;52.016;8.714;2022-10-16T04:33:50;-16261.94;;;-139.71;78.03
3598;BME280;1813;52.016;8.714;2022-10-16T04:36:22;-16261.94;;;-139.71;78.09
3598;BME280;1813;52.016;8.714;2022-10-16T04:38:54;-16261.94;;;-139.71;77.94
3598;BME280;1813;52.016;8.714;2022-10-16T04:41:26;-16261.94;;;-139.71;78.01
3598;BME280;1813;52.016;8.714;2022-10-16T04:43:58;-16261.94;;;-139.71;78.03
3598;BME280;1813;52.016;8.714;2022-10-16T04:46:30;-16261.94;;;-139.71;78.14
3598;BME280;1813;52.016;8.714;2022-10-16T04:49:03;-16261.94;;;-139.71;78.03
3598;BME280;1813;52.016;8.714;2022-10-16T04:51:35;-16261.94;;;-139.71;77.89
3598;BME280;1813;52.016;8.714;2022-10-16T04:54:08;-16261.94;;;-139.71;77.73
3598;BME280;1813;52.016;8.714;2022-10-16T04:56:40;-16261.94;;;-139.71;77.47
3598;BME280;1813;52.016;8.714;2022-10-16T04:59:18;-16261.94;;;-139.71;77.52
3598;BME280;1813;52.016;8.714;2022-10-16T05:01:50;-16261.94;;;-139.71;77.42
3598;BME280;1813;52.016;8.714;2022-10-16T05:04:23;-16261.94;;;-139.71;77.34
3598;BME280;1813;52.016;8.714;2022-10-16T05:06:55;-16261.94;;;-139.71;77.20
3598;BME280;1813;52.016;8.714;2022-10-16T05:09:27;-16261.94;;;-139.71;77.09
3598;BME280;1813;52.016;8.714;2022-10-16T05:11:59;-16261.94;;;-139.71;77.03
3598;BME280;1813;52.016;8.714;2022-10-16T05:14:31;-16261.94;;;-139.71;76.84
3598;BME280;1813;52.016;8.714;2022-10-16T05:17:03;-16261.94;;;-139.71;76.70
3598;BME280;1813;52.016;8.714;2022-10-16T05:19:36;-16261.94;;;-139.71;76.58
3598;BME280;1813;52.016;8.714;2022-10-16T05:22:08;-16261.94;;;-139.71;76.55
3598;BME280;1813;52.016;8.714;2022-10-16T05:24:40;-16261.94;;;-139.71;76.23
3598;BME280;1813;52.016;8.714;2022-10-16T05:27:12;-16261.94;;;-139.71;76.09
3598;BME280;1813;52.016;8.714;2022-10-16T05:29:49;-16261.94;;;-139.71;76.06
3598;BME280;1813;52.016;8.714;2022-10-16T05:32:21;-16261.94;;;-139.71;75.88
3598;BME280;1813;52.016;8.714;2022-10-16T05:34:54;-16261.94;;;-139.71;75.75
3598;BME280;1813;52.016;8.714;2022-10-16T05:37:27;-16261.94;;;-139.71;75.67
3598;BME280;1813;52.016;8.714;2022-10-16T05:39:59;-16261.94;;;-139.71;75.50
3598;BME280;1813;52.016;8.714;2022-10-16T05:42:31;-16261.94;;;-139.71;75.38
3598;BME280;1813;52.016;8.714;2022-10-16T05:45:03;-16261.94;;;-139.71;75.22
3598;BME280;1813;52.016;8.714;2022-10-16T05:47:35;-16261.94;;;-139.71;75.13
3598;BME280;1813;52.016;8.714;2022-10-16T05:50:09;-16261.94;;;-139.71;75.11
3598;BME280;1813;52.016;8.714;2022-10-16T05:52:41;-16261.94;;;-139.71;75.07
3598;BME280;1813;52.016;8.714;2022-10-16T05:55:13;-16261.94;;;-139.71;74.99
3598;BME280;1813;52.016;8.714;2022-10-16T05:57:46;-16261.94;;;-139.71;74.96
3598;BME280;1813;52.016;8.714;2022-10-16T06:00:18;-16261.94;;;-139.71;75.06
3598;BME280;1813;52.016;8.714;2022-10-16T06:02:49;-16261.94;;;-139.71;75.30
3598;BME280;1813;52.016;8.714;2022-10-16T06:05:23;-16261.94;;;-139.71;75.23
3598;BME280;1813;52.016;8.714;2022-10-16T06:07:55;-16261.94;;;-139.71;75.21
3598;BME280;1813;52.016;8.714;2022-10-16T06:10:26;-16261.94;;;-139.71;75.05
3598;BME280;1813;52.016;8.714;2022-10-16T06:12:59;-16261.94;;;-139.71;74.96
3598;BME280;1813;52.016;8.714;2022-10-16T06:15:31;-16261.94;;;-139.71;75.13
3598;BME280;1813;52.016;8.714;2022-10-16T06:18:03;-16261.94;;;-139.71;75.17
3598;BME280;1813;52.016;8.714;2022-10-16T06:20:36;-16261.94;;;-139.71;75.38
3598;BME280;1813;52.016;8.714;2022-10-16T06:23:09;-16261.94;;;-139.71;75.28
3598;BME280;1813;52.016;8.714;2022-10-16T06:25:41;-16261.94;;;-139.71;75.43
3598;BME280;1813;52.016;8.714;2022-10-16T06:28:13;-16261.94;;;-139.71;75.55
3598;BME280;1813;52.016;8.714;2022-10-16T06:30:45;-16261.94;;;-139.71;75.53
3598;BME280;1813;52.016;8.714;2022-10-16T06:33:17;-16261.94;;;-139.71;75.53
3598;BME280;1813;52.016;8.714;2022-10-16T06:35:50;-16261.94;;;-139.71;75.63
3598;BME280;1813;52.016;8.714;2022-10-16T06:38:22;-16261.94;;;-139.71;75.76
3598;BME280;1813;52.016;8.714;2022-10-16T06:40:54;-16261.94;;;-139.71;75.92
3598;BME280;1813;52.016;8.714;2022-10-16T06:43:28;-16261.94;;;-139.71;75.89
3598;BME280;1813;52.016;8.714;2022-10-16T06:46:05;-16261.94;;;-139.71;75.70
3598;BME280;1813;52.016;8.714;2022-10-16T06:48:38;-16261.94;;;-139.71;75.68
3598;BME280;1813;52.016;8.714;2022-10-16T06:51:12;-16261.94;;;-139.71;75.60
3598;BME280;1813;52.016;8.714;2022-10-16T06:53:46;-16261.94;;;-139.71;75.65
3598;BME280;1813;52.016;8.714;2022-10-16T06:56:21;-16261.94;;;-139.71;75.56
3598;BME280;1813;52.016;8.714;2022-10-16T06:58:54;-16261.94;;;-139.71;75.27
3598;BME280;1813;52.016;8.714;2022-10-16T07:01:27;-16261.94;;;-139.71;75.37
3598;BME280;1813;52.016;8.714;2022-10-16T07:03:59;-16261.94;;;-139.71;75.09
3598;BME280;1813;52.016;8.714;2022-10-16T07:06:33;-16261.94;;;-139.71;74.99
3598;BME280;1813;52.016;8.714;2022-10-16T07:09:08;-16261.94;;;-139.71;74.89
3598;BME280;1813;52.016;8.714;2022-10-16T07:11:40;-16261.94;;;-139.71;74.92
3598;BME280;1813;52.016;8.714;2022-10-16T07:14:15;-16261.94;;;-139.71;74.84
3598;BME280;1813;52.016;8.714;2022-10-16T07:16:48;-16261.94;;;-139.71;74.70
3598;BME280;1813;52.016;8.714;2022-10-16T07:19:20;-16261.94;;;-139.71;74.75
3598;BME280;1813;52.016;8.714;2022-10-16T07:21:54;-16261.94;;;-139.71;74.71
3598;BME280;1813;52.016;8.714;2022-10-16T07:24:26;-16261.94;;;-139.71;75.11
3598;BME280;1813;52.016;8.714;2022-10-16T07:26:58;-16261.94;;;-139.71;75.00
3598;BME280;1813;52.016;8.714;2022-10-16T07:29:30;-16261.94;;;-139.71;74.82
3598;BME280;1813;52.016;8.714;2022-10-16T07:32:02;-16261.94;;;-139.71;74.69
3598;BME280;1813;52.016;8.714;2022-10-16T07:34:34;-16261.94;;;-139.71;74.72
3598;BME280;1813;52.016;8.714;2022-10-16T07:37:08;-16261.94;;;-139.71;74.50
3598;BME280;1813;52.016;8.714;2022-10-16T07:39:39;-16261.94;;;-139.71;74.42
3598;BME280;1813;52.016;8.714;2022-10-16T07:42:11;-16261.94;;;-139.71;74.64
3598;BME280;1813;52.016;8.714;2022-10-16T07:44:43;-16261.94;;;-139.71;74.55
3598;BME280;1813;52.016;8.714;2022-10-16T07:47:15;-16261.94;;;-139.71;74.42
3598;BME280;1813;52.016;8.714;2022-10-16T07:49:48;-16261.94;;;-139.71;74.14
3598;BME280;1813;52.016;8.714;2022-10-16T07:52:21;-16261.94;;;-139.71;74.24
3598;BME280;1813;52.016;8.714;2022-10-16T07:54:53;-16261.94;;;-139.71;74.13
3598;BME280;1813;52.016;8.714;2022-10-16T07:57:25;-16261.94;;;-139.71;73.80
3598;BME280;1813;52.016;8.714;2022-10-16T07:59:57;-16261.94;;;-139.71;73.60
3598;BME280;1813;52.016;8.714;2022-10-16T08:02:29;-16261.94;;;-139.71;73.75
3598;BME280;1813;52.016;8.714;2022-10-16T08:05:01;-16261.94;;;-139.71;74.10
3598;BME280;1813;52.016;8.714;2022-10-16T08:07:34;-16261.94;;;-139.71;74.25
3598;BME280;1813;52.016;8.714;2022-10-16T08:10:09;-16261.94;;;-139.71;73.93
3598;BME280;1813;52.016;8.714;2022-10-16T08:12:43;-16261.94;;;-139.71;74.62
3598;BME280;1813;52.016;8.714;2022-10-16T08:15:15;-16261.94;;;-139.71;74.62
3598;BME280;1813;52.016;8.714;2022-10-16T08:17:54;-16261.94;;;-139.71;74.52
3598;BME280;1813;52.016;8.714;2022-10-16T08:20:28;-16261.94;;;-139.71;73.95
3598;BME280;1813;52.016;8.714;2022-10-16T08:23:02;-16261.94;;;-139.71;73.11
3598;BME280;1813;52.016;8.714;2022-10-16T08:25:34;-16261.94;;;-139.71;72.10
3598;BME280;1813;52.016;8.714;2022-10-16T08:28:09;-16261.94;;;-139.71;71.51
3598;BME280;1813;52.016;8.714;2022-10-16T08:30:41;-16261.94;;;-139.71;70.17
3598;BME280;1813;52.016;8.714;2022-10-16T08:33:13;-16261.94;;;-139.71;69.46
3598;BME280;1813;52.016;8.714;2022-10-16T08:35:50;-16261.94;;;-139.71;68.22
3598;BME280;1813;52.016;8.714;2022-10-16T08:38:25;-16261.94;;;-139.71;68.56
3598;BME280;1813;52.016;8.714;2022-10-16T08:41:13;-16261.94;;;-139.71;67.83
3598;BME280;1813;52.016;8.714;2022-10-16T08:44:04;-16261.94;;;-139.71;67.41
3598;BME280;1813;52.016;8.714;2022-10-16T08:46:45;-16261.94;;;-139.71;66.88
3598;BME280;1813;52.016;8.714;2022-10-16T08:49:19;-16261.94;;;-139.71;67.25
3598;BME280;1813;52.016;8.714;2022-10-16T08:51:52;-16261.94;;;-139.71;66.01
3598;BME280;1813;52.016;8.714;2022-10-16T08:54:29;-16261.94;;;-139.71;65.21
3598;BME280;1813;52.016;8.714;2022-10-16T08:57:09;-16261.94;;;-139.71;65.35
3598;BME280;1813;52.016;8.714;2022-10-16T08:59:42;-16261.94;;;-139.71;65.00
3598;BME280;1813;52.016;8.714;2022-10-16T09:02:24;-16261.94;;;-139.71;64.60
3598;BME280;1813;52.016;8.714;2022-10-16T09:05:18;-16261.94;;;-139.71;64.66
3598;BME280;1813;52.016;8.714;2022-10-16T09:08:01;-16261.94;;;-139.71;66.09
3598;BME280;1813;52.016;8.714;2022-10-16T09:10:43;-16261.94;;;-139.71;64.55
3598;BME280;1813;52.016;8.714;2022-10-16T09:13:26;-16261.94;;;-139.71;62.76
3598;BME280;1813;52.016;8.714;2022-10-16T09:16:12;-16261.94;;;-139.71;63.19
3598;BME280;1813;52.016;8.714;2022-10-16T09:18:53;-16261.94;;;-139.71;62.73
3598;BME280;1813;52.016;8.714;2022-10-16T09:21:29;-16261.94;;;-139.71;62.33
3598;BME280;1813;52.016;8.714;2022-10-16T09:24:11;-16261.94;;;-139.71;61.90
3598;BME280;1813;52.016;8.714;2022-10-16T09:26:46;-16261.94;;;-139.71;62.38
3598;BME280;1813;52.016;8.714;2022-10-16T09:29:24;-16261.94;;;-139.71;61.71
3598;BME280;1813;52.016;8.714;2022-10-16T09:31:57;-16261.94;;;-139.71;60.27
3598;BME280;1813;52.016;8.714;2022-10-16T09:34:42;-16261.94;;;-139.71;60.84
3598;BME280;1813;52.016;8.714;2022-10-16T09:37:18;-16261.94;;;-139.71;61.27
3598;BME280;1813;52.016;8.714;2022-10-16T09:39:53;-16261.94;;;-139.71;60.67
3598;BME280;1813;52.016;8.714;2022-10-16T09:42:30;-16261.94;;;-139.71;60.64
3598;BME280;1813;52.016;8.714;2022-10-16T09:45:04;-16261.94;;;-139.71;60.62
3598;BME280;1813;52.016;8.714;2022-10-16T09:47:39;-16261.94;;;-139.71;60.03
3598;BME280;1813;52.016;8.714;2022-10-16T09:50:22;-16261.94;;;-139.71;60.48
3598;BME280;1813;52.016;8.714;2022-10-16T09:53:05;-16261.94;;;-139.71;59.80
3598;BME280;1813;52.016;8.714;2022-10-16T09:55:47;-16261.94;;;-139.71;58.32
3598;BME280;1813;52.016;8.714;2022-10-16T09:58:22;-16261.94;;;-139.71;58.90
3598;BME280;1813;52.016;8.714;2022-10-16T10:00:55;-16261.94;;;-139.71;59.06
3598;BME280;1813;52.016;8.714;2022-10-16T10:03:35;-16261.94;;;-139.71;59.63
3598;BME280;1813;52.016;8.714;2022-10-16T10:06:17;-16261.94;;;-139.71;61.01
3598;BME280;1813;52.016;8.714;2022-10-16T10:09:15;-16261.94;;;-139.71;60.44
3598;BME280;1813;52.016;8.714;2022-10-16T10:11:50;-16261.94;;;-139.71;60.69
3598;BME280;1813;52.016;8.714;2022-10-16T10:14:26;-16261.94;;;-139.71;59.08
3598;BME280;1813;52.016;8.714;2022-10-16T10:17:12;-16261.94;;;-139.71;59.27
3598;BME280;1813;52.016;8.714;2022-10-16T10:19:54;-16261.94;;;-139.71;58.70
3598;BME280;1813;52.016;8.714;2022-10-16T10:22:31;-16261.94;;;-139.71;57.25
3598;BME280;1813;52.016;8.714;2022-10-16T10:25:19;-16261.94;;;-139.71;56.28
3598;BME280;1813;52.016;8.714;2022-10-16T10:28:10;-16261.94;;;-139.71;56.71
3598;BME280;1813;52.016;8.714;2022-10-16T10:30:54;-16261.94;;;-139.71;55.62
3598;BME280;1813;52.016;8.714;2022-10-16T10:33:34;-16261.94;;;-139.71;54.32
3598;BME280;1813;52.016;8.714;2022-10-16T10:36:16;-16261.94;;;-139.71;54.24
3598;BME280;1813;52.016;8.714;2022-10-16T10:38:55;-16261.94;;;-139.71;54.19
3598;BME280;1813;52.016;8.714;2022-10-16T10:48:00;-16261.94;;;-139.71;51.71
3598;BME280;1813;52.016;8.714;2022-10-16T10:50:39;-16261.94;;;-139.71;52.83
3598;BME280;1813;52.016;8.714;2022-10-16T10:53:31;-16261.94;;;-139.71;52.17
3598;BME280;1813;52.016;8.714;2022-10-16T10:56:16;-16261.94;;;-139.71;51.99
3598;BME280;1813;52.016;8.714;2022-10-16T10:59:03;-16261.94;;;-139.71;53.20
3598;BME280;1813;52.016;8.714;2022-10-16T11:01:47;-16261.94;;;-139.71;51.56
3598;BME280;1813;52.016;8.714;2022-10-16T11:07:31;-16261.94;;;-139.71;49.22
3598;BME280;1813;52.016;8.714;2022-10-16T11:10:11;-16261.94;;;-139.71;49.08
3598;BME280;1813;52.016;8.714;2022-10-16T11:12:47;-16261.94;;;-139.71;49.51
3598;BME280;1813;52.016;8.714;2022-10-16T11:15:27;-16261.94;;;-139.71;50.00
3598;BME280;1813;52.016;8.714;2022-10-16T11:18:04;-16261.94;;;-139.71;51.20
3598;BME280;1813;52.016;8.714;2022-10-16T11:20:42;-16261.94;;;-139.71;50.49
3598;BME280;1813;52.016;8.714;2022-10-16T11:23:18;-16261.94;;;-139.71;49.88
3598;BME280;1813;52.016;8.714;2022-10-16T11:25:54;-16261.94;;;-139.71;48.92
3598;BME280;1813;52.016;8.714;2022-10-16T11:28:29;-16261.94;;;-139.71;49.02
3598;BME280;1813;52.016;8.714;2022-10-16T11:31:08;-16261.94;;;-139.71;49.52
3598;BME280;1813;52.016;8.714;2022-10-16T11:33:46;-16261.94;;;-139.71;49.07
3598;BME280;1813;52.016;8.714;2022-10-16T11:36:23;-16261.94;;;-139.71;48.19
3598;BME280;1813;52.016;8.714;2022-10-16T11:39:00;-16261.94;;;-139.71;48.91
3598;BME280;1813;52.016;8.714;2022-10-16T11:41:36;-16261.94;;;-139.71;48.14
3598;BME280;1813;52.016;8.714;2022-10-16T11:44:16;-16261.94;;;-139.71;48.45
3598;BME280;1813;52.016;8.714;2022-10-16T11:46:57;-16261.94;;;-139.71;49.03
3598;BME280;1813;52.016;8.714;2022-10-16T11:49:31;-16261.94;;;-139.71;49.06
3598;BME280;1813;52.016;8.714;2022-10-16T11:52:13;-16261.94;;;-139.71;46.91
3598;BME280;1813;52.016;8.714;2022-10-16T11:54:51;-16261.94;;;-139.71;46.32
3598;BME280;1813;52.016;8.714;2022-10-16T11:57:28;-16261.94;;;-139.71;48.16
3598;BME280;1813;52.016;8.714;2022-10-16T12:00:04;-16261.94;;;-139.71;48.57
3598;BME280;1813;52.016;8.714;2022-10-16T12:02:50;-16261.94;;;-139.71;49.43
3598;BME280;1813;52.016;8.714;2022-10-16T12:05:32;-16261.94;;;-139.71;50.15
3598;BME280;1813;52.016;8.714;2022-10-16T12:08:11;-16261.94;;;-139.71;51.77
3598;BME280;1813;52.016;8.714;2022-10-16T12:10:45;-16261.94;;;-139.71;52.63
3598;BME280;1813;52.016;8.714;2022-10-16T12:13:32;-16261.94;;;-139.71;51.77
3598;BME280;1813;52.016;8.714;2022-10-16T12:16:21;-16261.94;;;-139.71;50.01
3598;BME280;1813;52.016;8.714;2022-10-16T12:19:09;-16261.94;;;-139.71;49.33
3598;BME280;1813;52.016;8.714;2022-10-16T12:21:43;-16261.94;;;-139.71;48.62
3598;BME280;1813;52.016;8.714;2022-10-16T12:24:30;-16261.94;;;-139.71;46.92
3598;BME280;1813;52.016;8.714;2022-10-16T12:27:04;-16261.94;;;-139.71;47.28
3598;BME280;1813;52.016;8.714;2022-10-16T12:29:38;-16261.94;;;-139.71;47.44
3598;BME280;1813;52.016;8.714;2022-10-16T12:32:27;-16261.94;;;-139.71;47.67
3598;BME280;1813;52.016;8.714;2022-10-16T12:35:00;-16261.94;;;-139.71;47.76
3598;BME280;1813;52.016;8.714;2022-10-16T12:37:34;-16261.94;;;-139.71;49.11
3598;BME280;1813;52.016;8.714;2022-10-16T12:40:13;-16261.94;;;-139.71;47.94
3598;BME280;1813;52.016;8.714;2022-10-16T12:42:46;-16261.94;;;-139.71;46.63
3598;BME280;1813;52.016;8.714;2022-10-16T12:45:28;-16261.94;;;-139.71;46.50
3598;BME280;1813;52.016;8.714;2022-10-16T12:48:04;-16261.94;;;-139.71;47.11
3598;BME280;1813;52.016;8.714;2022-10-16T12:50:49;-16261.94;;;-139.71;46.65
3598;BME280;1813;52.016;8.714;2022-10-16T12:53:23;-16261.94;;;-139.71;46.04
3598;BME280;1813;52.016;8.714;2022-10-16T12:56:04;-16261.94;;;-139.71;46.10
3598;BME280;1813;52.016;8.714;2022-10-16T12:58:50;-16261.94;;;-139.71;45.56
3598;BME280;1813;52.016;8.714;2022-10-16T13:01:34;-16261.94;;;-139.71;45.52
3598;BME280;1813;52.016;8.714;2022-10-16T13:07:38;-16261.94;;;-139.71;45.38
3598;BME280;1813;52.016;8.714;2022-10-16T13:10:21;-16261.94;;;-139.71;45.91
3598;BME280;1813;52.016;8.714;2022-10-16T13:13:12;-16261.94;;;-139.71;45.82
3598;BME280;1813;52.016;8.714;2022-10-16T13:15:58;-16261.94;;;-139.71;44.93
3598;BME280;1813;52.016;8.714;2022-10-16T13:18:44;-16261.94;;;-139.71;45.97
3598;BME280;1813;52.016;8.714;2022-10-16T13:21:31;-16261.94;;;-139.71;45.14
3598;BME280;1813;52.016;8.714;2022-10-16T13:24:14;-16261.94;;;-139.71;45.48
3598;BME280;1813;52.016;8.714;2022-10-16T13:26:54;-16261.94;;;-139.71;45.30
3598;BME280;1813;52.016;8.714;2022-10-16T13:29:31;-16261.94;;;-139.71;45.60
3598;BME280;1813;52.016;8.714;2022-10-16T13:32:08;-16261.94;;;-139.71;45.24
3598;BME280;1813;52.016;8.714;2022-10-16T13:34:44;-16261.94;;;-139.71;45.26
3598;BME280;1813;52.016;8.714;2022-10-16T13:37:18;-16261.94;;;-139.71;46.59
3598;BME280;1813;52.016;8.714;2022-10-16T13:39:51;-16261.94;;;-139.71;46.70
3598;BME280;1813;52.016;8.714;2022-10-16T13:42:25;-16261.94;;;-139.71;46.03
3598;BME280;1813;52.016;8.714;2022-10-16T13:44:59;-16261.94;;;-139.71;45.38
3598;BME280;1813;52.016;8.714;2022-10-16T13:47:31;-16261.94;;;-139.71;45.16
3598;BME280;1813;52.016;8.714;2022-10-16T13:50:06;-16261.94;;;-139.71;44.76